createdAt,value
2023-02-22T00:01:23.098Z,101266.47
2023-02-22T00:03:52.443Z,101270.25
2023-02-22T00:06:25.144Z,101269.22
2023-02-22T00:08:53.315Z,101266.94
2023-02-22T00:11:21.449Z,101255.69
2023-02-22T00:13:50.635Z,101252.38
2023-02-22T00:16:20.310Z,101253.94
2023-02-22T00:18:47.931Z,101260.94
2023-02-22T00:21:17.273Z,101253.28
2023-02-22T00:23:48.050Z,101255.53
2023-02-22T00:26:19.073Z,101250.81
2023-02-22T00:28:48.323Z,101260.00
2023-02-22T00:31:16.342Z,101256.41
2023-02-22T00:33:44.346Z,101257.75
2023-02-22T00:36:13.374Z,101256.78
2023-02-22T00:38:41.970Z,101250.06
2023-02-22T00:41:13.273Z,101242.09
2023-02-22T00:43:41.464Z,101242.28
2023-02-22T00:46:09.146Z,101239.28
2023-02-22T00:48:36.585Z,101236.59
2023-02-22T00:51:04.104Z,101248.88
2023-02-22T00:53:31.532Z,101246.31
2023-02-22T00:55:59.173Z,101248.44
2023-02-22T00:58:27.889Z,101251.88
2023-02-22T01:00:55.474Z,101251.41
2023-02-22T01:03:22.939Z,101254.22
2023-02-22T01:05:50.482Z,101250.59
2023-02-22T01:08:18.431Z,101250.13
2023-02-22T01:10:46.623Z,101251.06
2023-02-22T01:13:14.481Z,101251.75
2023-02-22T01:15:45.240Z,101244.03
2023-02-22T01:18:13.554Z,101253.38
2023-02-22T01:20:41.026Z,101255.13
2023-02-22T01:23:10.512Z,101249.00
2023-02-22T01:25:38.286Z,101247.38
2023-02-22T01:28:07.816Z,101245.50
2023-02-22T01:30:37.405Z,101235.97
2023-02-22T01:33:08.757Z,101236.69
2023-02-22T01:35:38.514Z,101239.06
2023-02-22T01:38:05.956Z,101235.25
2023-02-22T01:40:34.744Z,101236.03
2023-02-22T01:43:05.776Z,101230.81
2023-02-22T01:45:57.773Z,101233.34
2023-02-22T01:48:31.929Z,101232.81
2023-02-22T01:51:02.152Z,101232.09
2023-02-22T01:53:34.482Z,101232.00
2023-02-22T01:56:03.189Z,101231.91
2023-02-22T01:58:32.968Z,101228.34
2023-02-22T02:01:01.147Z,101232.09
2023-02-22T02:03:34.301Z,101222.50
2023-02-22T02:06:04.728Z,101224.38
2023-02-22T02:08:37.726Z,101233.41
2023-02-22T02:11:09.252Z,101236.91
2023-02-22T02:13:37.645Z,101234.81
2023-02-22T02:16:05.536Z,101225.13
2023-02-22T02:18:34.383Z,101227.59
2023-02-22T02:21:25.751Z,101223.22
2023-02-22T02:24:15.519Z,101225.28
2023-02-22T02:27:06.459Z,101222.16
2023-02-22T02:29:54.011Z,101217.16
2023-02-22T02:32:35.956Z,101214.44
2023-02-22T02:35:11.420Z,101214.13
2023-02-22T02:37:48.748Z,101212.72
2023-02-22T02:40:22.409Z,101214.28
2023-02-22T02:42:57.306Z,101217.91
2023-02-22T02:45:30.285Z,101213.72
2023-02-22T02:48:02.073Z,101226.28
2023-02-22T02:50:34.772Z,101214.69
2023-02-22T02:53:05.569Z,101211.97
2023-02-22T02:55:36.633Z,101210.84
2023-02-22T02:58:05.824Z,101210.41
2023-02-22T03:00:39.388Z,101205.47
2023-02-22T03:03:21.586Z,101213.19
2023-02-22T03:06:08.064Z,101209.44
2023-02-22T03:08:43.245Z,101213.78
2023-02-22T03:11:16.228Z,101204.41
2023-02-22T03:13:55.554Z,101212.03
2023-02-22T03:16:33.593Z,101205.69
2023-02-22T03:19:09.966Z,101204.88
2023-02-22T03:21:46.581Z,101202.47
2023-02-22T03:24:21.048Z,101202.31
2023-02-22T03:26:53.523Z,101206.66
2023-02-22T03:29:25.323Z,101202.00
2023-02-22T03:32:01.354Z,101198.94
2023-02-22T03:34:35.338Z,101197.56
2023-02-22T03:37:09.349Z,101197.50
2023-02-22T03:39:39.248Z,101197.31
2023-02-22T03:42:12.054Z,101205.88
2023-02-22T03:44:41.950Z,101207.13
2023-02-22T03:47:14.657Z,101202.31
2023-02-22T03:49:49.053Z,101212.75
2023-02-22T03:52:17.339Z,101215.31
2023-02-22T03:54:45.020Z,101215.13
2023-02-22T03:57:17.465Z,101208.81
2023-02-22T03:59:45.985Z,101209.69
2023-02-22T04:02:13.487Z,101212.59
2023-02-22T04:04:40.973Z,101207.09
2023-02-22T04:07:09.848Z,101207.25
2023-02-22T04:09:37.279Z,101198.47
2023-02-22T04:12:05.441Z,101201.94
2023-02-22T04:14:32.902Z,101205.13
2023-02-22T04:17:01.141Z,101211.09
2023-02-22T04:19:28.554Z,101209.19
2023-02-22T04:21:56.005Z,101209.94
2023-02-22T04:24:24.954Z,101205.41
2023-02-22T04:26:53.004Z,101207.03
2023-02-22T04:29:20.429Z,101207.44
2023-02-22T04:31:48.118Z,101209.28
2023-02-22T04:34:15.562Z,101207.41
2023-02-22T04:36:44.634Z,101204.28
2023-02-22T04:39:12.212Z,101213.47
2023-02-22T04:41:40.983Z,101212.97
2023-02-22T04:44:08.679Z,101207.09
2023-02-22T04:46:36.128Z,101201.50
2023-02-22T04:49:03.559Z,101206.13
2023-02-22T04:51:31.293Z,101203.38
2023-02-22T04:53:58.709Z,101202.25
2023-02-22T04:56:26.182Z,101203.22
2023-02-22T04:58:54.916Z,101200.47
2023-02-22T05:01:23.516Z,101195.19
2023-02-22T05:03:50.924Z,101203.44
2023-02-22T05:06:18.780Z,101203.00
2023-02-22T05:08:46.199Z,101193.31
2023-02-22T05:11:13.585Z,101199.78
2023-02-22T05:13:42.213Z,101201.41
2023-02-22T05:16:11.248Z,101196.09
2023-02-22T05:18:38.696Z,101194.56
2023-02-22T05:21:06.913Z,101191.00
2023-02-22T05:23:34.790Z,101185.78
2023-02-22T05:26:02.320Z,101188.28
2023-02-22T05:28:29.773Z,101191.16
2023-02-22T05:30:57.533Z,101192.00
2023-02-22T05:33:26.295Z,101181.84
2023-02-22T05:35:56.076Z,101193.72
2023-02-22T05:38:23.548Z,101195.47
2023-02-22T05:40:51.339Z,101199.06
2023-02-22T05:43:18.929Z,101196.75
2023-02-22T05:45:46.568Z,101195.06
2023-02-22T05:48:14.019Z,101195.53
2023-02-22T05:50:43.929Z,101204.88
2023-02-22T05:53:11.505Z,101196.75
2023-02-22T05:55:38.967Z,101205.44
2023-02-22T05:58:06.686Z,101198.50
2023-02-22T06:00:34.161Z,101202.16
2023-02-22T06:03:03.694Z,101201.41
2023-02-22T06:05:31.631Z,101201.63
2023-02-22T06:08:00.966Z,101201.75
2023-02-22T06:10:29.082Z,101206.81
2023-02-22T06:12:58.013Z,101212.72
2023-02-22T06:15:26.949Z,101211.50
2023-02-22T06:17:55.830Z,101210.63
2023-02-22T06:20:25.365Z,101215.97
2023-02-22T06:22:55.135Z,101219.25
2023-02-22T06:25:27.025Z,101219.31
2023-02-22T06:27:54.508Z,101216.59
2023-02-22T06:30:23.945Z,101228.63
2023-02-22T06:32:51.535Z,101219.38
2023-02-22T06:35:19.487Z,101223.22
2023-02-22T06:37:47.352Z,101226.84
2023-02-22T06:40:15.701Z,101229.88
2023-02-22T06:42:44.680Z,101226.72
2023-02-22T06:45:12.303Z,101234.63
2023-02-22T06:47:41.115Z,101226.28
2023-02-22T06:50:18.470Z,101233.63
2023-02-22T06:52:47.846Z,101234.28
2023-02-22T06:55:18.713Z,101236.69
2023-02-22T06:57:47.491Z,101234.91
2023-02-22T07:00:17.693Z,101241.06
2023-02-22T07:02:45.308Z,101242.13
2023-02-22T07:05:13.819Z,101242.13
2023-02-22T07:07:41.701Z,101238.00
2023-02-22T07:10:16.758Z,101249.50
2023-02-22T07:12:44.214Z,101248.06
2023-02-22T07:15:13.660Z,101248.53
2023-02-22T07:17:41.503Z,101249.28
2023-02-22T07:20:11.477Z,101249.25
2023-02-22T07:22:39.003Z,101254.28
2023-02-22T07:25:09.899Z,101254.44
2023-02-22T07:27:38.371Z,101245.75
2023-02-22T07:30:07.330Z,101255.00
2023-02-22T07:32:36.361Z,101247.22
2023-02-22T07:35:03.826Z,101243.91
2023-02-22T07:37:31.284Z,101252.28
2023-02-22T07:39:58.690Z,101242.41
2023-02-22T07:42:26.159Z,101237.59
2023-02-22T07:44:53.564Z,101245.31
2023-02-22T07:47:20.981Z,101257.00
2023-02-22T07:49:50.260Z,101252.56
2023-02-22T07:52:18.018Z,101250.69
2023-02-22T07:54:47.010Z,101258.38
2023-02-22T07:57:14.422Z,101256.63
2023-02-22T07:59:41.859Z,101248.97
2023-02-22T08:02:16.211Z,101250.75
2023-02-22T08:04:43.652Z,101252.41
2023-02-22T08:07:12.416Z,101251.34
2023-02-22T08:09:39.914Z,101252.34
2023-02-22T08:12:07.947Z,101245.31
2023-02-22T08:14:35.350Z,101250.19
2023-02-22T08:17:02.841Z,101255.44
2023-02-22T08:19:30.281Z,101256.09
2023-02-22T08:21:57.727Z,101248.97
2023-02-22T08:24:26.508Z,101248.72
2023-02-22T08:26:53.999Z,101245.66
2023-02-22T08:29:23.745Z,101250.84
2023-02-22T08:31:54.001Z,101247.44
2023-02-22T08:34:21.598Z,101249.13
2023-02-22T08:36:49.627Z,101251.34
2023-02-22T08:39:18.075Z,101254.91
2023-02-22T08:41:47.238Z,101244.94
2023-02-22T08:44:14.861Z,101244.88
2023-02-22T08:46:42.252Z,101237.19
2023-02-22T08:49:09.754Z,101246.28
2023-02-22T08:51:37.702Z,101251.81
2023-02-22T08:54:06.814Z,101253.31
2023-02-22T08:56:34.341Z,101253.75
2023-02-22T08:59:03.073Z,101251.09
2023-02-22T09:01:33.348Z,101253.81
2023-02-22T09:04:01.343Z,101245.44
2023-02-22T09:06:29.154Z,101242.75
2023-02-22T09:08:56.965Z,101247.09
2023-02-22T09:11:24.637Z,101239.34
2023-02-22T09:13:52.067Z,101244.13
2023-02-22T09:16:20.809Z,101244.94
2023-02-22T09:18:48.360Z,101254.22
2023-02-22T09:21:16.475Z,101242.91
2023-02-22T09:23:44.106Z,101242.16
2023-02-22T09:26:11.584Z,101250.03
2023-02-22T09:28:38.980Z,101241.28
2023-02-22T09:31:06.498Z,101244.91
2023-02-22T09:33:38.038Z,101248.22
2023-02-22T09:36:06.893Z,101250.44
2023-02-22T09:38:34.480Z,101245.84
2023-02-22T09:41:12.220Z,101238.81
2023-02-22T09:43:45.362Z,101234.31
2023-02-22T09:46:27.522Z,101226.34
2023-02-22T09:49:05.188Z,101243.81
2023-02-22T09:51:39.355Z,101238.25
2023-02-22T09:54:14.850Z,101225.94
2023-02-22T09:56:43.703Z,101229.31
2023-02-22T09:59:18.734Z,101227.75
2023-02-22T10:01:49.682Z,101221.09
2023-02-22T10:04:23.099Z,101227.19
2023-02-22T10:07:05.949Z,101226.81
2023-02-22T10:09:37.580Z,101225.09
2023-02-22T10:12:11.929Z,101222.22
2023-02-22T10:14:49.696Z,101219.31
2023-02-22T10:17:27.321Z,101219.59
2023-02-22T10:20:06.095Z,101211.13
2023-02-22T10:22:45.623Z,101217.66
2023-02-22T10:25:17.948Z,101219.19
2023-02-22T10:27:53.045Z,101211.81
2023-02-22T10:30:25.324Z,101213.53
2023-02-22T10:33:00.521Z,101214.22
2023-02-22T10:35:31.003Z,101215.00
2023-02-22T10:38:02.727Z,101210.63
2023-02-22T10:40:33.203Z,101205.56
2023-02-22T10:43:05.997Z,101202.84
2023-02-22T10:45:36.977Z,101202.97
2023-02-22T10:48:11.503Z,101197.88
2023-02-22T10:50:43.190Z,101193.66
2023-02-22T10:53:11.774Z,101196.31
2023-02-22T10:56:10.348Z,101194.44
2023-02-22T10:58:43.161Z,101202.75
2023-02-22T11:01:27.369Z,101199.06
2023-02-22T11:04:00.141Z,101206.97
2023-02-22T11:06:29.732Z,101205.88
2023-02-22T11:09:10.856Z,101197.44
2023-02-22T11:11:39.747Z,101201.56
2023-02-22T11:14:10.657Z,101196.88
2023-02-22T11:16:41.607Z,101197.94
2023-02-22T11:19:20.826Z,101193.63
2023-02-22T11:21:52.928Z,101187.63
2023-02-22T11:24:24.205Z,101189.31
2023-02-22T11:26:54.973Z,101197.84
2023-02-22T11:29:27.282Z,101184.56
2023-02-22T11:31:56.178Z,101191.38
2023-02-22T11:34:31.531Z,101197.03
2023-02-22T11:37:16.635Z,101181.06
2023-02-22T11:39:44.737Z,101171.47
2023-02-22T11:42:23.201Z,101175.22
2023-02-22T11:45:08.308Z,101169.41
2023-02-22T11:47:36.008Z,101165.16
2023-02-22T11:50:11.281Z,101163.88
2023-02-22T11:52:47.067Z,101165.00
2023-02-22T11:55:36.311Z,101158.00
2023-02-22T11:58:27.683Z,101150.22
2023-02-22T12:01:07.008Z,101155.66
2023-02-22T12:03:50.082Z,101154.53
2023-02-22T12:06:27.469Z,101154.97
2023-02-22T12:09:06.901Z,101145.72
2023-02-22T12:11:44.500Z,101140.81
2023-02-22T12:14:22.228Z,101134.84
2023-02-22T12:17:08.414Z,101143.19
2023-02-22T12:19:40.334Z,101145.78
2023-02-22T12:22:11.504Z,101142.69
2023-02-22T12:24:46.182Z,101143.13
2023-02-22T12:27:20.724Z,101127.88
2023-02-22T12:29:52.198Z,101131.53
2023-02-22T12:32:29.846Z,101134.19
2023-02-22T12:35:05.542Z,101129.00
2023-02-22T12:37:39.148Z,101131.22
2023-02-22T12:40:15.721Z,101130.41
2023-02-22T12:42:53.877Z,101129.88
2023-02-22T12:45:31.779Z,101127.13
2023-02-22T12:48:13.811Z,101132.31
2023-02-22T12:50:44.264Z,101133.81
2023-02-22T12:53:19.924Z,101131.16
2023-02-22T12:55:52.308Z,101132.16
2023-02-22T12:58:25.873Z,101130.19
2023-02-22T13:01:01.188Z,101129.00
2023-02-22T13:03:34.147Z,101129.47
2023-02-22T13:06:14.514Z,101128.69
2023-02-22T13:08:51.591Z,101135.47
2023-02-22T13:11:27.911Z,101123.00
2023-02-22T13:14:14.960Z,101122.22
2023-02-22T13:16:52.526Z,101121.09
2023-02-22T13:19:35.341Z,101117.34
2023-02-22T13:22:10.047Z,101114.53
2023-02-22T13:24:47.066Z,101119.53
2023-02-22T13:27:22.803Z,101108.81
2023-02-22T13:29:55.706Z,101114.41
2023-02-22T13:32:37.965Z,101113.78
2023-02-22T13:35:35.261Z,101111.22
2023-02-22T13:38:21.279Z,101105.28
2023-02-22T13:41:13.555Z,101100.47
2023-02-22T13:44:13.535Z,101099.22
2023-02-22T13:47:21.834Z,101103.03
2023-02-22T13:50:16.797Z,101101.13
2023-02-22T13:52:46.295Z,101098.44
2023-02-22T13:55:19.060Z,101101.41
2023-02-22T13:57:49.909Z,101105.31
2023-02-22T14:00:41.743Z,101101.09
2023-02-22T14:03:36.062Z,101098.81
2023-02-22T14:06:06.325Z,101099.41
2023-02-22T14:08:44.094Z,101104.63
2023-02-22T14:11:56.849Z,101096.06
2023-02-22T14:14:24.813Z,101095.63
2023-02-22T14:17:30.536Z,101087.28
2023-02-22T14:20:20.721Z,101093.31
2023-02-22T14:22:50.213Z,101097.69
2023-02-22T14:28:10.773Z,101083.78
2023-02-22T14:30:40.152Z,101084.97
2023-02-22T14:33:44.303Z,101084.81
2023-02-22T14:36:13.725Z,101084.78
2023-02-22T14:38:45.325Z,101079.06
2023-02-22T14:41:14.929Z,101079.09
2023-02-22T14:43:43.139Z,101070.72
2023-02-22T14:46:17.200Z,101075.78
2023-02-22T14:48:47.637Z,101063.41
2023-02-22T14:51:24.181Z,101075.28
2023-02-22T14:53:59.478Z,101076.81
2023-02-22T14:56:36.177Z,101075.59
2023-02-22T14:59:16.082Z,101079.81
2023-02-22T15:01:58.417Z,101079.81
2023-02-22T15:04:31.968Z,101074.97
2023-02-22T15:07:09.087Z,101069.47
2023-02-22T15:09:37.482Z,101072.00
2023-02-22T15:12:14.400Z,101062.66
2023-02-22T15:14:44.618Z,101060.16
2023-02-22T15:17:19.512Z,101053.03
2023-02-22T15:19:49.508Z,101060.81
2023-02-22T15:22:23.529Z,101065.16
2023-02-22T15:24:59.683Z,101048.56
2023-02-22T15:27:28.199Z,101047.09
2023-02-22T15:30:00.158Z,101052.31
2023-02-22T15:32:36.092Z,101047.03
2023-02-22T15:35:14.074Z,101055.09
2023-02-22T15:37:44.343Z,101054.28
2023-02-22T15:40:15.950Z,101061.66
2023-02-22T15:42:45.363Z,101054.41
2023-02-22T15:45:19.846Z,101056.13
2023-02-22T15:47:49.367Z,101059.91
2023-02-22T15:50:24.048Z,101050.78
2023-02-22T15:52:58.379Z,101046.66
2023-02-22T15:55:29.635Z,101058.97
2023-02-22T15:58:01.583Z,101051.63
2023-02-22T16:00:36.199Z,101058.53
2023-02-22T16:03:05.622Z,101045.75
2023-02-22T16:05:39.710Z,101046.78
2023-02-22T16:08:17.920Z,101055.34
2023-02-22T16:10:54.296Z,101048.41
2023-02-22T16:13:31.410Z,101042.69
2023-02-22T16:16:02.694Z,101044.94
2023-02-22T16:18:33.650Z,101036.78
2023-02-22T16:21:05.142Z,101039.97
2023-02-22T16:23:46.004Z,101044.22
2023-02-22T16:26:29.048Z,101044.41
2023-02-22T16:28:57.982Z,101040.06
2023-02-22T16:31:28.045Z,101044.66
2023-02-22T16:33:55.871Z,101043.78
2023-02-22T16:36:36.943Z,101041.94
2023-02-22T16:39:08.098Z,101041.69
2023-02-22T16:41:35.763Z,101039.59
2023-02-22T16:44:03.470Z,101047.06
2023-02-22T16:46:30.986Z,101048.00
2023-02-22T16:49:03.249Z,101045.19
2023-02-22T16:51:39.672Z,101049.41
2023-02-22T16:54:12.772Z,101044.28
2023-02-22T16:56:41.370Z,101042.59
2023-02-22T16:59:12.202Z,101044.59
2023-02-22T17:01:39.785Z,101046.28
2023-02-22T17:04:14.791Z,101048.63
2023-02-22T17:06:42.488Z,101045.84
2023-02-22T17:09:11.536Z,101046.13
2023-02-22T17:11:39.729Z,101046.31
2023-02-22T17:14:07.250Z,101045.38
2023-02-22T17:16:34.881Z,101042.94
2023-02-22T17:19:04.898Z,101046.38
2023-02-22T17:21:32.703Z,101044.66
2023-02-22T17:24:00.198Z,101045.59
2023-02-22T17:26:28.925Z,101040.34
2023-02-22T17:28:56.318Z,101037.50
2023-02-22T17:31:30.475Z,101035.38
2023-02-22T17:34:02.103Z,101044.44
2023-02-22T17:36:29.637Z,101041.38
2023-02-22T17:38:57.269Z,101041.50
2023-02-22T17:41:24.685Z,101046.19
2023-02-22T17:43:54.266Z,101037.69
2023-02-22T17:46:21.879Z,101045.06
2023-02-22T17:48:49.427Z,101043.78
2023-02-22T17:51:17.341Z,101042.72
2023-02-22T17:53:44.810Z,101037.69
2023-02-22T17:56:16.683Z,101039.84
2023-02-22T17:58:44.324Z,101035.78
2023-02-22T18:01:24.575Z,101035.63
2023-02-22T18:03:53.055Z,101043.63
2023-02-22T18:06:25.141Z,101043.88
2023-02-22T18:08:55.840Z,101039.31
2023-02-22T18:11:26.218Z,101034.09
2023-02-22T18:13:54.512Z,101032.63
2023-02-22T18:16:25.486Z,101029.59
2023-02-22T18:18:53.096Z,101029.91
2023-02-22T18:21:20.529Z,101035.78
2023-02-22T18:23:48.059Z,101030.16
2023-02-22T18:26:17.319Z,101025.72
2023-02-22T18:28:44.906Z,101029.19
2023-02-22T18:31:14.836Z,101033.44
2023-02-22T18:33:44.170Z,101030.19
2023-02-22T18:36:12.651Z,101027.16
2023-02-22T18:38:42.836Z,101034.44
2023-02-22T18:41:12.756Z,101029.72
2023-02-22T18:43:40.894Z,101030.31
2023-02-22T18:46:10.366Z,101026.16
2023-02-22T18:48:38.932Z,101024.50
2023-02-22T18:51:10.328Z,101023.41
2023-02-22T18:53:38.342Z,101024.34
2023-02-22T18:56:07.436Z,101025.88
2023-02-22T18:58:35.360Z,101023.31
2023-02-22T19:01:03.606Z,101014.03
2023-02-22T19:03:33.091Z,101012.84
2023-02-22T19:06:03.444Z,101016.09
2023-02-22T19:08:33.073Z,101012.34
2023-02-22T19:11:06.372Z,101016.88
2023-02-22T19:13:35.119Z,101016.09
2023-02-22T19:16:03.824Z,101013.59
2023-02-22T19:18:31.954Z,101020.47
2023-02-22T19:20:59.499Z,101016.97
2023-02-22T19:23:27.097Z,101019.19
2023-02-22T19:25:55.830Z,101022.91
2023-02-22T19:28:28.007Z,101017.03
2023-02-22T19:30:55.562Z,101019.22
2023-02-22T19:33:26.045Z,101026.25
2023-02-22T19:35:53.726Z,101026.09
2023-02-22T19:38:21.309Z,101024.03
2023-02-22T19:40:48.751Z,101018.97
2023-02-22T19:43:17.539Z,101025.81
2023-02-22T19:45:44.950Z,101026.66
2023-02-22T19:48:14.251Z,101029.84
2023-02-22T19:50:48.792Z,101026.56
2023-02-22T19:53:16.321Z,101033.56
2023-02-22T19:55:44.140Z,101023.44
2023-02-22T19:58:14.705Z,101025.47
2023-02-22T20:00:43.409Z,101030.00
2023-02-22T20:03:13.374Z,101020.00
2023-02-22T20:05:41.868Z,101029.38
2023-02-22T20:08:09.722Z,101021.66
2023-02-22T20:10:37.133Z,101026.72
2023-02-22T20:13:04.735Z,101030.09
2023-02-22T20:15:34.448Z,101021.75
2023-02-22T20:18:03.344Z,101028.72
2023-02-22T20:20:31.797Z,101026.91
2023-02-22T20:22:59.249Z,101031.59
2023-02-22T20:25:26.643Z,101025.06
2023-02-22T20:27:56.257Z,101025.72
2023-02-22T20:30:23.714Z,101025.81
2023-02-22T20:32:51.526Z,101032.50
2023-02-22T20:35:21.143Z,101025.97
2023-02-22T20:37:48.538Z,101023.28
2023-02-22T20:40:16.182Z,101022.44
2023-02-22T20:42:44.544Z,101028.09
2023-02-22T20:45:12.096Z,101029.03
2023-02-22T20:47:39.561Z,101028.69
2023-02-22T20:50:08.249Z,101021.25
2023-02-22T20:52:37.086Z,101020.28
2023-02-22T20:55:04.709Z,101021.41
2023-02-22T20:57:32.130Z,101020.22
2023-02-22T21:00:00.471Z,101026.16
2023-02-22T21:02:28.027Z,101018.50
2023-02-22T21:04:55.465Z,101021.13
2023-02-22T21:07:22.993Z,101018.16
2023-02-22T21:09:52.524Z,101017.69
2023-02-22T21:12:19.983Z,101017.59
2023-02-22T21:14:47.394Z,101029.28
2023-02-22T21:17:14.833Z,101029.50
2023-02-22T21:19:42.490Z,101025.00
2023-02-22T21:22:10.255Z,101024.06
2023-02-22T21:24:37.960Z,101014.44
2023-02-22T21:27:06.957Z,101016.09
2023-02-22T21:29:35.524Z,101012.81
2023-02-22T21:32:03.829Z,101021.88
2023-02-22T21:34:31.355Z,101007.56
2023-02-22T21:36:58.767Z,101013.03
2023-02-22T21:39:28.525Z,101021.63
2023-02-22T21:42:00.047Z,101016.03
2023-02-22T21:44:29.621Z,101012.28
2023-02-22T21:46:57.144Z,101007.13
2023-02-22T21:49:25.037Z,101009.09
2023-02-22T21:51:52.967Z,101002.78
2023-02-22T21:54:20.866Z,101007.00
2023-02-22T21:56:48.386Z,101002.19
2023-02-22T21:59:19.022Z,101003.44
2023-02-22T22:01:49.895Z,100999.91
2023-02-22T22:04:19.789Z,100995.06
2023-02-22T22:06:49.120Z,100996.22
2023-02-22T22:09:19.930Z,100985.47
2023-02-22T22:11:49.539Z,100977.97
2023-02-22T22:14:18.593Z,100974.03
2023-02-22T22:16:48.860Z,100975.16
2023-02-22T22:19:16.370Z,100972.84
2023-02-22T22:21:43.783Z,100974.81
2023-02-22T22:24:11.998Z,100975.00
2023-02-22T22:26:42.561Z,100980.47
2023-02-22T22:29:11.437Z,100976.66
2023-02-22T22:31:39.151Z,100972.50
2023-02-22T22:34:08.086Z,100964.66
2023-02-22T22:36:36.483Z,100967.41
2023-02-22T22:39:12.931Z,100975.34
2023-02-22T22:41:41.365Z,100973.09
2023-02-22T22:44:09.871Z,100975.28
2023-02-22T22:46:40.325Z,100974.06
2023-02-22T22:49:10.705Z,100976.91
2023-02-22T22:51:40.806Z,100970.88
2023-02-22T22:54:09.409Z,100976.34
2023-02-22T22:56:39.264Z,100971.66
2023-02-22T22:59:09.553Z,100975.94
2023-02-22T23:01:40.561Z,100968.84
2023-02-22T23:04:12.115Z,100967.16
2023-02-22T23:06:41.658Z,100961.59
2023-02-22T23:09:11.793Z,100959.66
2023-02-22T23:11:44.330Z,100964.13
2023-02-22T23:14:13.328Z,100963.69
2023-02-22T23:16:41.922Z,100964.09
2023-02-22T23:19:10.865Z,100959.16
2023-02-22T23:21:39.290Z,100954.69
2023-02-22T23:24:07.452Z,100950.13
2023-02-22T23:26:35.709Z,100957.09
2023-02-22T23:29:04.004Z,100954.84
2023-02-22T23:31:32.062Z,100956.13
2023-02-22T23:34:00.279Z,100955.03
2023-02-22T23:36:29.447Z,100948.09
2023-02-22T23:38:56.899Z,100948.16
2023-02-22T23:41:28.334Z,100952.41
2023-02-22T23:43:55.761Z,100940.69
2023-02-22T23:46:23.206Z,100945.59
2023-02-22T23:48:53.059Z,100954.28
2023-02-22T23:51:25.358Z,100951.63
2023-02-22T23:53:56.401Z,100958.03
2023-02-22T23:56:26.486Z,100953.69
2023-02-22T23:58:57.371Z,100956.19
